Terminal Aerodrome Forecast
Issued by NWS

Current Version | Previous Version | Text Only | Print | Product List | Glossary Off
Versions: 1 2 3 4 5 6 7 8 9 10 11 12 13 14

000
FTUS41 KPBZ 201125
TAFHLG
TAF
KHLG 201125Z 2012/2112 25007KT P6SM SKC
     FM201600 24012G20KT P6SM SCT090
     FM210000 22005KT P6SM SKC
     FM211000 21004KT P6SM BKN090=

USA.gov is the U.S. government's official web portal to all federal, state and local government web resources and services.